Time;durP1;ratioP1;P1;durP2;ratioP2;P2;SDS_P1;SDS_P2;PMS_P1;PMS_P2;Temp;Humidity;BMP_temperature;BMP_pressure;BME280_temperature;BME280_humidity;BME280_pressure;Samples;Min_cycle;Max_cycle;Signal;HPM_P1;HPM_P2
2022/06/23 00:01:46;;;;;;;18.87;8.73;;;23.70;59.50;;;;;;5026516;28;20835;-71
2022/06/23 00:04:18;;;;;;;22.63;8.10;;;23.70;59.80;;;;;;5026078;28;20437;-72
2022/06/23 00:06:46;;;;;;;23.37;8.67;;;23.60;59.60;;;;;;5024915;28;20451;-71
2022/06/23 00:09:34;;;;;;;24.40;9.97;;;23.50;60.70;;;;;;5026759;28;20435;-71
2022/06/23 00:12:02;;;;;;;27.47;8.83;;;23.60;59.90;;;;;;5026206;28;20485;-71
2022/06/23 00:14:28;;;;;;;29.20;9.00;;;23.50;60.10;;;;;;5027789;28;20451;-70
2022/06/23 00:16:53;;;;;;;23.73;8.40;;;23.40;60.30;;;;;;5028246;28;21019;-70
2022/06/23 00:19:19;;;;;;;24.90;9.40;;;23.40;61.00;;;;;;5024784;28;20518;-71
2022/06/23 00:21:50;;;;;;;29.87;8.07;;;23.20;61.20;;;;;;5026734;28;20669;-71
2022/06/23 00:24:25;;;;;;;25.33;9.23;;;23.20;62.00;;;;;;5029700;28;20185;-71
2022/06/23 00:26:53;;;;;;;29.53;8.83;;;23.10;61.80;;;;;;5026798;28;20973;-71
2022/06/23 00:29:23;;;;;;;16.80;7.73;;;23.20;62.00;;;;;;5027886;28;20434;-71
2022/06/23 00:31:55;;;;;;;25.07;8.13;;;23.20;62.10;;;;;;5026503;28;20482;-71
2022/06/23 00:34:29;;;;;;;24.53;8.03;;;23.20;60.90;;;;;;5029350;28;20469;-71
2022/06/23 00:37:01;;;;;;;37.13;8.20;;;23.20;61.00;;;;;;5028624;28;20439;-71
2022/06/23 00:39:48;;;;;;;19.37;7.33;;;23.20;60.80;;;;;;5026216;28;20481;-71
2022/06/23 00:42:25;;;;;;;21.77;7.80;;;23.20;60.80;;;;;;5027909;28;20453;-71
2022/06/23 00:45:09;;;;;;;21.97;8.43;;;23.10;60.70;;;;;;5029044;28;20963;-71
2022/06/23 00:47:53;;;;;;;24.13;7.90;;;23.50;58.00;;;;;;5025623;28;20427;-71
2022/06/23 00:50:45;;;;;;;19.57;6.80;;;23.40;58.40;;;;;;5028892;28;20435;-71
2022/06/23 00:53:11;;;;;;;23.70;7.57;;;23.10;60.10;;;;;;5028903;28;20416;-71
2022/06/23 00:56:01;;;;;;;21.77;7.83;;;23.10;60.70;;;;;;5029401;28;20427;-71
2022/06/23 00:58:47;;;;;;;21.60;8.60;;;23.30;59.90;;;;;;5024062;28;20179;-71
2022/06/23 01:01:34;;;;;;;18.20;7.57;;;23.10;60.20;;;;;;5026452;28;20452;-71
2022/06/23 01:04:08;;;;;;;32.77;8.73;;;23.00;61.20;;;;;;5026262;28;20441;-71
2022/06/23 01:06:44;;;;;;;25.20;8.13;;;22.50;64.70;;;;;;5028426;28;20499;-71
2022/06/23 01:09:24;;;;;;;14.97;7.40;;;22.90;62.50;;;;;;5028618;28;20530;-71
2022/06/23 01:12:00;;;;;;;24.23;7.23;;;22.90;61.60;;;;;;5028242;28;20475;-71
2022/06/23 01:15:05;;;;;;;31.53;8.50;;;22.90;61.30;;;;;;5024647;28;20512;-71
2022/06/23 01:17:40;;;;;;;20.30;8.07;;;23.10;59.70;;;;;;5023401;28;21079;-71
2022/06/23 01:20:47;;;;;;;20.70;7.83;;;23.20;59.20;;;;;;5028387;28;20450;-71
2022/06/23 01:23:37;;;;;;;27.23;8.10;;;23.00;59.80;;;;;;5018110;28;20438;-72
2022/06/23 01:26:35;;;;;;;24.50;7.83;;;23.00;59.60;;;;;;5031395;28;20494;-71
2022/06/23 01:29:13;;;;;;;18.97;7.40;;;23.10;58.00;;;;;;5023745;28;20493;-72
2022/06/23 01:31:56;;;;;;;23.03;7.53;;;22.90;60.50;;;;;;5029701;28;20717;-71
2022/06/23 01:34:42;;;;;;;23.60;7.87;;;22.90;60.50;;;;;;5024990;28;20844;-70
2022/06/23 01:37:16;;;;;;;21.07;8.30;;;22.80;59.80;;;;;;5023864;28;20422;-71
2022/06/23 01:39:47;;;;;;;18.10;7.50;;;22.70;60.30;;;;;;5013600;28;20435;-70
2022/06/23 01:42:47;;;;;;;27.93;7.90;;;22.50;61.40;;;;;;5014502;28;20453;-71
2022/06/23 01:45:26;;;;;;;20.70;7.90;;;22.60;61.30;;;;;;5002363;28;20504;-71
2022/06/23 01:51:15;;;;;;;21.50;7.37;;;22.50;61.10;;;;;;5014817;28;20516;-71
2022/06/23 01:53:41;;;;;;;19.47;8.10;;;22.40;61.80;;;;;;5013970;28;20877;-69
2022/06/23 01:57:00;;;;;;;28.80;7.90;;;22.40;62.20;;;;;;5017149;28;20457;-71
2022/06/23 01:59:31;;;;;;;16.03;7.80;;;22.40;61.90;;;;;;4971868;28;20467;-71
2022/06/23 02:02:05;;;;;;;34.63;8.77;;;22.40;62.20;;;;;;4979370;28;20478;-70
2022/06/23 02:04:38;;;;;;;19.97;8.17;;;22.40;61.90;;;;;;4982070;28;20462;-71
2022/06/23 02:07:16;;;;;;;23.00;9.50;;;22.40;62.30;;;;;;4977598;28;20445;-71
2022/06/23 02:09:50;;;;;;;25.57;9.73;;;22.50;61.30;;;;;;4972419;28;20494;-71
2022/06/23 02:12:25;;;;;;;16.10;7.77;;;22.70;60.30;;;;;;4977542;28;20477;-71
2022/06/23 02:15:05;;;;;;;33.00;9.23;;;22.60;60.30;;;;;;4977099;28;20439;-71
2022/06/23 02:17:47;;;;;;;22.07;8.13;;;22.60;60.30;;;;;;4975435;28;20526;-70
2022/06/23 02:20:38;;;;;;;22.57;8.00;;;22.40;59.90;;;;;;4975009;28;20437;-70
2022/06/23 02:23:35;;;;;;;21.20;7.90;;;22.40;60.40;;;;;;4973968;28;20441;-71
2022/06/23 02:26:10;;;;;;;23.10;8.40;;;22.40;60.80;;;;;;4976926;28;20530;-71
2022/06/23 02:28:41;;;;;;;18.07;7.77;;;22.60;60.30;;;;;;4977119;28;20436;-71
2022/06/23 02:31:12;;;;;;;27.10;7.70;;;22.50;60.10;;;;;;5025638;28;20469;-70
2022/06/23 02:34:05;;;;;;;22.40;8.17;;;22.70;58.60;;;;;;5022359;28;20509;-71
2022/06/23 02:36:33;;;;;;;22.80;8.40;;;22.90;56.70;;;;;;5017324;28;20440;-71
2022/06/23 02:39:07;;;;;;;24.93;8.20;;;22.90;56.00;;;;;;5022683;28;20424;-70
2022/06/23 02:41:49;;;;;;;27.37;7.80;;;22.80;56.00;;;;;;5017599;28;20468;-72
2022/06/23 02:44:42;;;;;;;22.80;7.97;;;22.60;58.40;;;;;;5024782;28;21028;-70
2022/06/23 02:47:20;;;;;;;29.13;7.73;;;22.50;58.90;;;;;;5018803;28;20440;-71
2022/06/23 02:50:03;;;;;;;17.23;7.00;;;22.30;60.00;;;;;;5022329;28;20461;-71
2022/06/23 02:52:48;;;;;;;18.33;7.70;;;22.30;60.70;;;;;;5019038;28;20936;-71
2022/06/23 02:55:47;;;;;;;20.27;7.60;;;22.40;60.10;;;;;;5020480;28;20968;-70
2022/06/23 02:59:02;;;;;;;17.37;7.93;;;22.60;58.60;;;;;;5024329;28;20454;-71
2022/06/23 03:01:43;;;;;;;24.37;7.80;;;22.40;58.90;;;;;;4947678;29;20468;-71
2022/06/23 03:04:23;;;;;;;21.93;8.20;;;22.50;59.50;;;;;;4943484;29;20442;-71
2022/06/23 03:07:20;;;;;;;23.07;8.00;;;22.30;58.60;;;;;;4950018;29;20439;-71
2022/06/23 03:09:51;;;;;;;20.70;7.20;;;22.40;58.90;;;;;;4945342;29;20496;-70
2022/06/23 03:12:19;;;;;;;28.77;9.50;;;22.40;58.50;;;;;;4942773;29;20492;-71
2022/06/23 03:15:01;;;;;;;30.20;7.30;;;22.30;59.70;;;;;;4947008;29;20786;-71
2022/06/23 03:17:56;;;;;;;19.30;7.83;;;22.20;60.00;;;;;;4943604;29;20468;-71
2022/06/23 03:20:28;;;;;;;19.10;8.47;;;22.30;60.00;;;;;;4944841;29;20459;-71
2022/06/23 03:23:15;;;;;;;17.90;8.10;;;22.20;59.90;;;;;;4943260;29;20506;-71
2022/06/23 03:25:43;;;;;;;18.83;8.00;;;22.10;60.10;;;;;;4948475;29;20522;-71
2022/06/23 03:28:24;;;;;;;18.63;8.00;;;22.10;59.90;;;;;;4950811;29;20446;-71
2022/06/23 03:31:25;;;;;;;28.40;8.00;;;22.10;59.80;;;;;;4944225;29;20472;-71
2022/06/23 03:33:59;;;;;;;23.47;8.63;;;22.10;59.80;;;;;;5025887;28;20448;-71
2022/06/23 03:36:34;;;;;;;28.47;8.50;;;22.30;57.90;;;;;;5030068;28;20490;-71
2022/06/23 03:42:25;;;;;;;18.73;7.80;;;22.20;59.50;;;;;;5027238;28;21010;-70
2022/06/23 03:45:08;;;;;;;15.80;6.90;;;22.10;60.60;;;;;;5025760;28;20441;-70
2022/06/23 03:47:56;;;;;;;18.93;7.90;;;22.40;58.10;;;;;;5024998;28;20945;-71
2022/06/23 03:50:33;;;;;;;26.23;7.10;;;22.30;58.90;;;;;;5024494;28;20464;-71
2022/06/23 03:53:03;;;;;;;14.43;6.50;;;22.10;59.80;;;;;;5029910;28;20475;-70
2022/06/23 03:55:52;;;;;;;20.47;7.17;;;22.10;59.80;;;;;;5029394;28;20451;-71
2022/06/23 03:58:33;;;;;;;16.23;6.97;;;22.00;59.70;;;;;;5028999;28;20435;-71
2022/06/23 04:01:14;;;;;;;22.20;7.00;;;22.00;60.80;;;;;;5026612;28;20446;-71
2022/06/23 04:03:57;;;;;;;20.40;7.27;;;22.20;60.50;;;;;;5029376;28;20436;-71
2022/06/23 04:06:57;;;;;;;16.43;7.23;;;22.20;59.90;;;;;;5028916;28;20432;-71
2022/06/23 04:09:29;;;;;;;15.47;6.33;;;22.30;58.80;;;;;;5020108;28;20438;-72
2022/06/23 04:12:06;;;;;;;18.63;6.37;;;22.20;58.30;;;;;;5029079;28;20481;-71
2022/06/23 04:14:55;;;;;;;27.47;6.40;;;22.20;59.10;;;;;;5025048;28;20817;-71
2022/06/23 04:17:45;;;;;;;12.33;6.00;;;22.30;60.00;;;;;;5030458;28;20440;-71
2022/06/23 04:20:15;;;;;;;12.50;6.33;;;22.10;58.90;;;;;;5030406;28;20466;-71
2022/06/23 04:22:56;;;;;;;17.33;6.53;;;22.10;59.80;;;;;;5030047;28;20980;-71
2022/06/23 04:25:31;;;;;;;15.23;6.27;;;22.20;59.30;;;;;;5022483;28;20518;-71
2022/06/23 04:28:00;;;;;;;20.23;6.63;;;22.10;59.40;;;;;;5025591;28;20854;-70
2022/06/23 04:30:25;;;;;;;9.70;6.10;;;21.90;59.60;;;;;;5030525;28;20463;-70
2022/06/23 04:32:52;;;;;;;17.47;7.30;;;22.10;58.20;;;;;;5027836;28;20474;-71
2022/06/23 04:35:31;;;;;;;15.87;7.20;;;22.20;57.20;;;;;;5025192;28;20192;-70
2022/06/23 04:38:06;;;;;;;16.97;8.50;;;22.10;57.80;;;;;;5028722;28;20524;-71
2022/06/23 04:40:39;;;;;;;9.97;6.47;;;22.30;56.90;;;;;;5030519;28;20453;-71
2022/06/23 04:43:20;;;;;;;14.97;6.33;;;22.40;56.60;;;;;;5029019;28;20439;-71
2022/06/23 04:45:59;;;;;;;19.97;7.00;;;22.30;57.20;;;;;;5014255;28;20440;-71
2022/06/23 04:48:45;;;;;;;15.93;6.73;;;22.30;56.50;;;;;;5017498;28;20438;-71
2022/06/23 04:51:26;;;;;;;22.30;7.57;;;22.40;56.30;;;;;;5017163;28;20462;-71
2022/06/23 04:54:00;;;;;;;11.70;7.23;;;22.40;56.30;;;;;;5016662;28;20813;-71
2022/06/23 04:56:41;;;;;;;15.17;6.80;;;22.50;55.00;;;;;;5025853;28;20447;-71
2022/06/23 04:59:32;;;;;;;17.67;7.03;;;22.50;55.50;;;;;;5018974;28;20431;-70
2022/06/23 05:02:20;;;;;;;12.97;6.60;;;22.60;54.50;;;;;;5020248;28;20459;-71
2022/06/23 05:04:51;;;;;;;10.17;6.50;;;22.50;55.90;;;;;;5016656;28;20438;-71
2022/06/23 05:07:26;;;;;;;13.07;6.90;;;22.60;55.00;;;;;;5020342;28;20600;-71
2022/06/23 05:10:00;;;;;;;15.30;7.33;;;22.70;55.70;;;;;;5018246;28;20779;-71
2022/06/23 05:12:39;;;;;;;13.30;6.53;;;22.50;53.60;;;;;;5018448;28;20478;-71
2022/06/23 05:15:17;;;;;;;23.33;6.93;;;22.50;56.80;;;;;;5022353;28;20448;-70
2022/06/23 05:17:58;;;;;;;12.50;5.60;;;22.70;55.40;;;;;;5024384;28;20800;-70
2022/06/23 05:20:41;;;;;;;11.73;6.30;;;22.80;54.40;;;;;;5021620;28;20496;-71
2022/06/23 05:23:15;;;;;;;12.70;6.60;;;23.00;53.70;;;;;;5021316;28;20814;-73
2022/06/23 05:25:46;;;;;;;13.80;6.27;;;23.10;53.90;;;;;;5023642;28;20437;-70
2022/06/23 05:28:31;;;;;;;22.73;7.13;;;23.00;55.40;;;;;;5025412;28;20445;-71
2022/06/23 05:31:08;;;;;;;13.23;6.10;;;23.10;54.30;;;;;;5023946;28;20990;-70
2022/06/23 05:33:36;;;;;;;19.10;6.50;;;23.20;54.30;;;;;;5025469;28;20447;-71
2022/06/23 05:36:04;;;;;;;13.20;5.50;;;23.30;54.40;;;;;;5023470;28;20449;-71
2022/06/23 05:38:47;;;;;;;15.40;5.97;;;23.50;50.70;;;;;;5027308;28;20454;-71
2022/06/23 05:41:28;;;;;;;10.57;5.20;;;23.50;51.70;;;;;;5029358;28;21005;-71
2022/06/23 05:43:57;;;;;;;9.23;5.07;;;23.50;52.30;;;;;;5024493;28;20945;-71
2022/06/23 05:46:26;;;;;;;14.50;5.90;;;23.50;51.50;;;;;;5021217;28;20513;-71
2022/06/23 05:49:19;;;;;;;13.17;5.60;;;23.20;52.90;;;;;;5023266;28;20825;-70
2022/06/23 05:51:44;;;;;;;9.77;5.10;;;22.90;53.60;;;;;;5025172;28;20478;-71
2022/06/23 05:54:36;;;;;;;13.87;5.17;;;23.00;54.40;;;;;;5020990;28;20477;-70
2022/06/23 05:57:28;;;;;;;10.17;4.90;;;22.90;54.40;;;;;;5023766;28;20590;-70
2022/06/23 05:59:57;;;;;;;14.10;5.63;;;23.10;53.40;;;;;;5010657;28;20490;-70
2022/06/23 06:02:29;;;;;;;10.90;4.97;;;23.20;52.40;;;;;;5022425;28;20460;-71
2022/06/23 06:04:57;;;;;;;9.60;5.30;;;23.30;52.50;;;;;;5021625;28;20448;-70
2022/06/23 06:07:31;;;;;;;10.43;5.00;;;23.10;52.40;;;;;;5027844;28;20433;-70
2022/06/23 06:09:57;;;;;;;13.00;4.77;;;23.20;53.20;;;;;;5027858;28;20452;-70
2022/06/23 06:12:29;;;;;;;11.87;5.07;;;23.40;51.80;;;;;;5027512;28;20838;-70
2022/06/23 06:15:04;;;;;;;7.90;5.13;;;23.70;50.00;;;;;;5028757;28;20195;-71
2022/06/23 06:17:33;;;;;;;18.93;4.50;;;24.00;48.20;;;;;;5017775;28;20445;-70
2022/06/23 06:20:02;;;;;;;20.23;5.97;;;24.00;49.10;;;;;;5015341;28;20470;-73
2022/06/23 06:22:49;;;;;;;13.80;4.70;;;24.10;48.20;;;;;;5016280;28;20525;-71
2022/06/23 06:25:39;;;;;;;12.03;5.60;;;23.90;49.60;;;;;;5020254;28;21026;-71
2022/06/23 06:28:23;;;;;;;16.97;5.40;;;23.70;49.40;;;;;;5021482;28;20441;-70
2022/06/23 06:31:02;;;;;;;8.60;4.80;;;23.60;49.90;;;;;;5018241;28;20522;-70
2022/06/23 06:33:37;;;;;;;11.30;5.50;;;23.60;50.30;;;;;;5023938;28;20437;-71
2022/06/23 06:36:20;;;;;;;8.43;4.70;;;23.90;50.60;;;;;;5028916;28;20423;-71
2022/06/23 06:38:46;;;;;;;12.40;4.87;;;24.10;48.40;;;;;;5018955;28;20426;-71
2022/06/23 06:41:11;;;;;;;10.73;4.30;;;24.40;46.60;;;;;;5024752;28;20454;-71
2022/06/23 06:43:37;;;;;;;14.60;4.20;;;24.60;47.30;;;;;;5024418;28;20654;-70
2022/06/23 06:46:03;;;;;;;9.03;5.10;;;24.60;45.30;;;;;;5027984;28;20233;-71
2022/06/23 06:48:38;;;;;;;12.33;4.47;;;24.60;45.70;;;;;;5027002;28;20264;-72
2022/06/23 06:51:13;;;;;;;18.03;5.90;;;23.80;47.40;;;;;;5016939;28;20550;-71
2022/06/23 06:53:43;;;;;;;7.63;4.63;;;24.10;49.40;;;;;;5027427;28;20424;-71
2022/06/23 06:56:18;;;;;;;8.83;4.60;;;24.40;49.50;;;;;;5025207;28;20514;-69
2022/06/23 06:58:57;;;;;;;16.93;5.00;;;24.70;48.20;;;;;;5029800;28;20787;-71
2022/06/23 07:01:25;;;;;;;10.43;4.50;;;24.90;45.50;;;;;;5028032;28;20480;-70
2022/06/23 07:03:53;;;;;;;9.03;4.17;;;24.80;45.70;;;;;;5028888;28;20799;-70
2022/06/23 07:06:40;;;;;;;10.60;4.97;;;24.90;46.40;;;;;;5021324;28;20424;-73
2022/06/23 07:09:17;;;;;;;8.80;4.60;;;25.00;44.80;;;;;;5027860;28;20446;-71
2022/06/23 07:11:51;;;;;;;12.77;4.60;;;25.00;46.00;;;;;;5027416;28;20475;-71
2022/06/23 07:14:33;;;;;;;7.90;4.77;;;25.40;43.20;;;;;;5030377;28;20411;-71
2022/06/23 07:17:24;;;;;;;11.00;4.70;;;25.40;44.50;;;;;;5021610;28;20443;-71
2022/06/23 07:20:02;;;;;;;11.67;4.30;;;25.10;43.00;;;;;;5015061;28;20489;-71
2022/06/23 07:22:47;;;;;;;13.27;4.80;;;25.10;43.90;;;;;;5025474;28;20451;-71
2022/06/23 07:25:22;;;;;;;14.30;4.77;;;25.30;43.80;;;;;;5014352;28;20424;-71
2022/06/23 07:27:55;;;;;;;14.67;5.00;;;25.20;43.20;;;;;;5023597;28;20438;-71
2022/06/23 07:30:23;;;;;;;8.23;4.63;;;25.40;43.20;;;;;;5018800;28;20418;-71
2022/06/23 07:33:12;;;;;;;10.10;5.50;;;25.60;44.50;;;;;;5022328;28;20470;-71
2022/06/23 07:35:51;;;;;;;10.80;5.00;;;25.70;43.00;;;;;;5030558;28;20491;-71
2022/06/23 07:38:53;;;;;;;16.80;4.77;;;25.70;42.60;;;;;;5020944;28;20454;-71
2022/06/23 07:41:22;;;;;;;23.63;5.43;;;25.90;40.60;;;;;;5028001;28;20444;-71
2022/06/23 07:44:04;;;;;;;10.13;4.53;;;25.70;41.40;;;;;;5019662;28;20858;-71
2022/06/23 07:46:32;;;;;;;21.43;4.80;;;25.90;40.60;;;;;;5024013;28;20450;-71
2022/06/23 07:48:58;;;;;;;11.03;4.50;;;25.70;40.50;;;;;;5020615;28;20419;-71
2022/06/23 07:51:24;;;;;;;15.30;5.10;;;25.90;41.50;;;;;;5020644;28;21288;-71
2022/06/23 07:53:53;;;;;;;12.83;4.23;;;26.00;40.00;;;;;;5023928;28;20191;-71
2022/06/23 07:56:25;;;;;;;14.37;4.50;;;25.60;38.90;;;;;;5026808;28;20778;-71
2022/06/23 07:58:55;;;;;;;12.50;4.50;;;25.70;39.40;;;;;;5025259;28;20931;-71
2022/06/23 08:01:32;;;;;;;15.03;3.83;;;26.10;38.70;;;;;;5025221;28;20530;-71
2022/06/23 08:04:09;;;;;;;10.50;5.23;;;26.40;36.40;;;;;;5023844;28;20435;-70
2022/06/23 08:06:35;;;;;;;12.17;4.50;;;25.50;38.20;;;;;;5026125;28;20457;-70
2022/06/23 08:09:10;;;;;;;24.63;5.07;;;25.90;39.00;;;;;;5021703;28;20430;-71
2022/06/23 08:14:30;;;;;;;21.83;5.07;;;26.60;39.70;;;;;;5030330;28;20442;-71
2022/06/23 08:16:56;;;;;;;20.73;5.27;;;26.80;39.20;;;;;;5031117;28;20846;-70
2022/06/23 08:19:39;;;;;;;21.53;5.83;;;26.80;39.20;;;;;;5024850;28;20416;-71
2022/06/23 08:22:14;;;;;;;15.43;5.23;;;26.80;39.40;;;;;;5025381;28;20705;-71
2022/06/23 08:24:42;;;;;;;14.00;5.40;;;26.70;39.20;;;;;;5023496;28;20441;-70
2022/06/23 08:27:14;;;;;;;15.07;5.10;;;26.90;39.20;;;;;;5022027;28;20431;-71
2022/06/23 08:29:44;;;;;;;15.87;4.80;;;26.70;37.30;;;;;;5016540;28;20813;-71
2022/06/23 08:32:11;;;;;;;11.47;4.67;;;25.60;39.90;;;;;;5015004;28;20533;-70
2022/06/23 08:34:40;;;;;;;13.60;4.60;;;25.50;40.00;;;;;;5030028;28;20419;-71
2022/06/23 08:37:14;;;;;;;11.90;4.17;;;25.50;42.10;;;;;;5024023;28;20521;-72
2022/06/23 08:40:21;;;;;;;16.33;4.80;;;26.20;39.50;;;;;;5018735;28;20432;-72
2022/06/23 08:42:59;;;;;;;16.00;4.40;;;26.80;40.80;;;;;;4933952;29;20449;-71
2022/06/23 08:45:49;;;;;;;15.93;4.90;;;26.90;38.60;;;;;;5003362;28;20446;-70
2022/06/23 08:48:23;;;;;;;15.33;4.23;;;27.10;39.00;;;;;;5023992;28;20412;-70
2022/06/23 08:50:59;;;;;;;18.77;4.57;;;27.30;35.90;;;;;;5028259;28;20453;-71
2022/06/23 08:53:34;;;;;;;12.40;3.90;;;27.20;33.50;;;;;;5019873;28;20419;-70
2022/06/23 08:56:09;;;;;;;11.60;4.07;;;27.20;33.20;;;;;;5024399;28;20429;-71
2022/06/23 08:58:35;;;;;;;13.37;4.07;;;27.60;32.90;;;;;;5026128;28;20437;-71
2022/06/23 09:01:12;;;;;;;10.13;4.10;;;27.70;32.10;;;;;;5024213;28;20456;-70
2022/06/23 09:03:46;;;;;;;12.83;3.80;;;27.80;33.40;;;;;;5024858;28;20190;-71
2022/06/23 09:06:48;;;;;;;14.33;3.67;;;27.90;32.50;;;;;;5023257;28;20428;-73
2022/06/23 09:09:49;;;;;;;15.57;4.00;;;28.00;31.20;;;;;;5027314;28;20422;-71
2022/06/23 09:12:35;;;;;;;10.63;3.30;;;27.60;32.10;;;;;;5022666;28;20530;-71
2022/06/23 09:15:28;;;;;;;12.40;3.97;;;27.80;31.30;;;;;;5027342;28;20858;-70
2022/06/23 09:18:21;;;;;;;11.70;3.80;;;28.10;30.00;;;;;;5019312;28;20426;-71
2022/06/23 09:21:13;;;;;;;17.53;4.10;;;28.40;29.70;;;;;;5019346;28;20436;-72
2022/06/23 09:24:06;;;;;;;18.60;4.60;;;28.40;29.60;;;;;;5018801;28;20416;-71
2022/06/23 09:26:43;;;;;;;15.23;4.30;;;28.10;29.20;;;;;;5019477;28;20926;-71
2022/06/23 09:29:45;;;;;;;11.70;3.90;;;28.30;29.30;;;;;;5023677;28;20431;-71
2022/06/23 09:32:31;;;;;;;12.53;3.53;;;28.70;29.70;;;;;;5024888;28;20462;-71
2022/06/23 09:35:14;;;;;;;14.60;3.83;;;29.00;29.60;;;;;;5023926;28;20423;-71
2022/06/23 09:38:01;;;;;;;14.33;3.87;;;29.10;28.50;;;;;;5021716;28;20419;-71
2022/06/23 09:40:33;;;;;;;18.80;3.90;;;28.90;29.70;;;;;;5018224;28;20950;-71
2022/06/23 09:43:21;;;;;;;13.83;3.27;;;28.90;27.50;;;;;;5012422;28;20431;-71
2022/06/23 09:45:49;;;;;;;12.57;3.90;;;28.80;27.50;;;;;;5021268;28;20887;-71
2022/06/23 09:48:15;;;;;;;17.30;3.60;;;28.60;28.50;;;;;;5021455;28;20432;-71
2022/06/23 09:50:55;;;;;;;16.50;4.10;;;28.70;28.40;;;;;;5022600;28;20465;-70
2022/06/23 09:53:24;;;;;;;16.90;3.90;;;29.10;28.00;;;;;;5023606;28;20210;-71
2022/06/23 09:56:02;;;;;;;14.63;3.83;;;29.40;27.20;;;;;;5024080;28;20485;-71
2022/06/23 09:58:38;;;;;;;16.70;3.83;;;29.90;26.20;;;;;;5021130;28;20415;-72
2022/06/23 10:01:36;;;;;;;13.07;4.20;;;30.30;27.10;;;;;;5011615;28;20526;-71
2022/06/23 10:04:05;;;;;;;13.80;4.20;;;30.30;27.20;;;;;;5011203;28;20993;-71
2022/06/23 10:07:00;;;;;;;9.17;3.50;;;29.10;27.30;;;;;;5024626;28;20452;-71
2022/06/23 10:09:25;;;;;;;17.87;4.27;;;29.50;27.00;;;;;;5013179;28;20427;-71
2022/06/23 10:11:57;;;;;;;14.63;3.70;;;29.20;26.30;;;;;;5024745;28;20999;-71
2022/06/23 10:14:57;;;;;;;15.17;4.20;;;28.20;28.20;;;;;;5019067;28;20201;-72
2022/06/23 10:17:53;;;;;;;21.00;3.87;;;29.10;28.00;;;;;;5012956;28;20423;-71
2022/06/23 10:20:39;;;;;;;16.70;4.23;;;29.80;27.40;;;;;;5014145;28;20431;-72
2022/06/23 10:23:35;;;;;;;18.10;5.07;;;30.20;27.20;;;;;;5023729;28;20867;-71
2022/06/23 10:26:15;;;;;;;13.40;4.37;;;30.20;25.70;;;;;;5016046;28;20471;-71
2022/06/23 10:29:02;;;;;;;17.17;4.60;;;30.30;27.00;;;;;;5013358;28;20804;-71
2022/06/23 10:31:53;;;;;;;12.67;4.23;;;30.70;26.30;;;;;;5012952;28;21568;-71
2022/06/23 10:34:54;;;;;;;26.60;3.80;;;31.30;24.60;;;;;;5026390;28;20423;-72
2022/06/23 10:37:44;;;;;;;23.03;4.00;;;31.20;23.60;;;;;;4976833;28;20428;-71
2022/06/23 10:40:39;;;;;;;17.73;4.40;;;31.20;25.60;;;;;;5017896;28;20939;-71
2022/06/23 10:43:31;;;;;;;9.80;3.73;;;31.30;25.50;;;;;;5016191;28;20433;-72
2022/06/23 10:46:14;;;;;;;19.40;4.40;;;31.30;25.10;;;;;;5007681;28;20432;-71
2022/06/23 10:49:11;;;;;;;12.93;3.67;;;31.30;25.40;;;;;;5011091;28;20464;-70
2022/06/23 10:51:39;;;;;;;17.90;4.23;;;31.50;23.90;;;;;;5016444;28;20470;-71
2022/06/23 10:54:28;;;;;;;18.23;4.13;;;31.70;22.30;;;;;;5024464;28;20420;-76
2022/06/23 10:57:02;;;;;;;13.37;4.50;;;31.70;23.70;;;;;;5016235;28;20453;-72
2022/06/23 10:59:44;;;;;;;15.17;3.83;;;31.90;24.50;;;;;;5019427;28;20422;-72
2022/06/23 11:02:22;;;;;;;15.00;3.90;;;31.20;22.00;;;;;;5016245;28;20830;-71
2022/06/23 11:05:18;;;;;;;9.57;3.93;;;31.20;24.60;;;;;;5020840;28;21168;-71
2022/06/23 11:07:58;;;;;;;12.70;4.00;;;31.50;26.30;;;;;;5020114;28;20431;-71
2022/06/23 11:10:39;;;;;;;15.17;3.80;;;32.10;24.60;;;;;;5021152;28;20451;-71
2022/06/23 11:13:32;;;;;;;15.03;4.50;;;32.40;21.90;;;;;;5021471;28;20842;-71
2022/06/23 11:16:07;;;;;;;16.80;3.90;;;32.80;23.70;;;;;;5021042;28;20927;-71
2022/06/23 11:18:45;;;;;;;16.40;4.00;;;33.00;22.40;;;;;;5015177;28;20423;-71
2022/06/23 11:21:22;;;;;;;17.43;3.47;;;33.20;21.90;;;;;;5019376;28;20445;-71
2022/06/23 11:24:08;;;;;;;12.03;3.53;;;33.20;21.90;;;;;;5028614;28;20434;-71
2022/06/23 11:26:53;;;;;;;13.83;3.50;;;33.60;19.70;;;;;;5020076;28;20511;-71
2022/06/23 11:29:57;;;;;;;10.47;3.53;;;32.90;20.10;;;;;;5014735;28;20412;-71
2022/06/23 11:32:35;;;;;;;15.97;3.50;;;31.70;21.70;;;;;;5027813;28;20502;-71
2022/06/23 11:35:17;;;;;;;14.63;3.83;;;30.80;22.30;;;;;;5028996;28;20430;-72
2022/06/23 11:38:20;;;;;;;11.47;3.57;;;32.00;23.10;;;;;;5025550;28;20427;-70
2022/06/23 11:41:22;;;;;;;14.90;4.13;;;32.90;21.80;;;;;;5028447;28;20453;-71
2022/06/23 11:44:16;;;;;;;9.00;3.50;;;34.10;18.70;;;;;;5021134;28;20442;-71
2022/06/23 11:47:07;;;;;;;11.43;3.33;;;35.10;20.50;;;;;;5025535;28;20970;-71
2022/06/23 11:49:38;;;;;;;10.13;3.67;;;35.50;18.90;;;;;;5024718;28;20434;-72
2022/06/23 11:52:22;;;;;;;11.33;4.20;;;35.20;19.90;;;;;;5029911;28;20471;-72
2022/06/23 11:55:03;;;;;;;16.03;3.60;;;34.80;18.30;;;;;;5026488;28;20520;-72
2022/06/23 11:57:59;;;;;;;20.53;3.80;;;35.20;17.10;;;;;;5026412;28;20945;-72
2022/06/23 12:00:54;;;;;;;12.40;3.27;;;35.40;17.00;;;;;;5022486;28;20450;-71
2022/06/23 12:03:23;;;;;;;13.60;3.43;;;34.30;17.60;;;;;;5023238;28;20431;-71
2022/06/23 12:06:28;;;;;;;14.73;3.70;;;35.10;20.30;;;;;;5024289;28;20442;-71
2022/06/23 12:09:00;;;;;;;11.00;3.60;;;35.60;17.70;;;;;;5023257;28;20477;-72
2022/06/23 12:11:27;;;;;;;9.53;3.40;;;36.20;17.00;;;;;;5022678;28;20482;-72
2022/06/23 12:13:57;;;;;;;9.10;3.03;;;36.80;17.30;;;;;;5019778;28;20432;-72
2022/06/23 12:16:22;;;;;;;11.40;3.10;;;36.00;16.40;;;;;;5017877;28;20432;-71
2022/06/23 12:18:57;;;;;;;18.40;3.63;;;36.50;16.10;;;;;;5013618;28;20424;-72
2022/06/23 12:21:23;;;;;;;16.07;3.27;;;36.80;15.00;;;;;;5018508;28;20668;-72
2022/06/23 12:23:59;;;;;;;17.30;3.63;;;37.60;16.30;;;;;;5014580;28;20550;-71
2022/06/23 12:26:32;;;;;;;12.20;3.67;;;37.10;15.30;;;;;;5030258;28;20172;-72
2022/06/23 12:29:23;;;;;;;14.77;3.73;;;36.40;14.40;;;;;;5020560;28;20435;-72
2022/06/23 12:32:08;;;;;;;11.00;3.17;;;37.40;15.50;;;;;;4985510;28;20553;-72
2022/06/23 12:34:56;;;;;;;10.77;3.47;;;37.40;13.80;;;;;;5020759;28;20486;-72
2022/06/23 12:37:55;;;;;;;13.73;3.60;;;38.00;15.20;;;;;;5020337;28;20430;-72
2022/06/23 12:40:44;;;;;;;14.53;3.93;;;38.10;12.80;;;;;;5018542;28;20416;-71
2022/06/23 12:43:31;;;;;;;18.23;3.30;;;37.40;12.90;;;;;;5020133;28;20465;-72
2022/06/23 12:46:03;;;;;;;22.53;3.63;;;37.70;13.10;;;;;;5017662;28;20439;-70
2022/06/23 12:48:55;;;;;;;10.87;3.33;;;36.60;15.00;;;;;;5018081;28;20436;-71
2022/06/23 12:51:41;;;;;;;12.13;3.37;;;36.90;13.60;;;;;;5025790;28;20883;-71
2022/06/23 12:54:43;;;;;;;17.90;3.03;;;36.30;14.00;;;;;;5018216;28;20431;-75
2022/06/23 12:57:28;;;;;;;7.40;2.90;;;36.50;13.70;;;;;;5022451;28;20438;-72
2022/06/23 13:00:08;;;;;;;15.90;3.70;;;36.40;15.70;;;;;;5023209;28;20518;-72
2022/06/23 13:02:53;;;;;;;11.20;3.20;;;36.00;14.70;;;;;;5024174;28;20430;-72
2022/06/23 13:05:24;;;;;;;11.97;3.17;;;36.30;15.10;;;;;;5027468;28;20793;-74
2022/06/23 13:07:55;;;;;;;14.97;3.47;;;36.40;15.90;;;;;;5024323;28;20966;-70
2022/06/23 13:10:31;;;;;;;13.23;3.20;;;36.10;16.00;;;;;;5028753;28;20513;-73
2022/06/23 13:13:26;;;;;;;7.03;3.00;;;35.90;15.40;;;;;;5025126;28;20542;-70
2022/06/23 13:15:57;;;;;;;12.10;3.10;;;36.40;16.00;;;;;;5012315;28;20455;-70
2022/06/23 13:18:40;;;;;;;11.40;3.00;;;36.70;14.80;;;;;;5021272;28;20442;-69
2022/06/23 13:21:23;;;;;;;9.80;3.10;;;36.60;13.70;;;;;;5062311;22;20443;-66
2022/06/23 13:24:10;;;;;;;14.10;3.50;;;35.10;14.80;;;;;;5006558;28;20443;-67
2022/06/23 13:26:41;;;;;;;18.70;3.77;;;34.70;14.70;;;;;;5027247;28;20802;-68
2022/06/23 13:29:15;;;;;;;12.73;3.20;;;34.50;16.90;;;;;;5026475;28;20785;-67
2022/06/23 13:31:50;;;;;;;11.73;2.63;;;35.20;15.20;;;;;;5031148;28;20831;-67
2022/06/23 13:34:29;;;;;;;15.23;4.00;;;34.90;16.50;;;;;;5013692;28;20836;-67
2022/06/23 13:37:03;;;;;;;17.43;3.77;;;34.80;17.50;;;;;;5011994;28;20420;-68
2022/06/23 13:39:49;;;;;;;11.77;3.70;;;35.00;16.90;;;;;;5008166;28;20791;-68
2022/06/23 13:42:56;;;;;;;16.53;3.30;;;35.10;16.60;;;;;;5012793;28;20949;-68
2022/06/23 13:45:28;;;;;;;14.70;3.20;;;35.40;17.10;;;;;;4920544;29;20451;-67
2022/06/23 13:48:02;;;;;;;12.43;3.10;;;35.30;16.40;;;;;;4927793;29;20795;-68
2022/06/23 13:50:50;;;;;;;17.97;3.23;;;35.10;17.50;;;;;;4930014;29;20498;-68
2022/06/23 13:53:51;;;;;;;16.70;3.27;;;35.50;14.80;;;;;;4929685;29;20463;-67